Time;durP1;ratioP1;P1;durP2;ratioP2;P2;SDS_P1;SDS_P2;PMS_P1;PMS_P2;Temp;Humidity;BMP_temperature;BMP_pressure;BME280_temperature;BME280_humidity;BME280_pressure;Samples;Min_cycle;Max_cycle;Signal;HPM_P1;HPM_P2
2023/03/22 00:02:05;;;;;;;1.43;1.20;;;9.50;99.90;;;;;;5053171;28;20526;-55
2023/03/22 00:04:32;;;;;;;2.47;1.43;;;9.50;99.90;;;;;;5052615;28;20443;-55
2023/03/22 00:06:59;;;;;;;1.70;1.20;;;9.60;99.90;;;;;;5052424;28;20554;-54
2023/03/22 00:09:26;;;;;;;1.53;1.23;;;9.50;99.90;;;;;;5053170;28;20494;-55
2023/03/22 00:11:53;;;;;;;2.07;1.10;;;9.30;99.90;;;;;;5052148;28;20827;-55
2023/03/22 00:14:20;;;;;;;2.30;1.20;;;9.30;99.90;;;;;;5051299;28;20860;-55
2023/03/22 00:16:48;;;;;;;2.37;1.30;;;9.40;99.90;;;;;;5051070;28;20551;-55
2023/03/22 00:19:16;;;;;;;3.73;1.70;;;9.50;99.90;;;;;;5050405;28;20446;-54
2023/03/22 00:21:43;;;;;;;1.60;1.20;;;9.50;99.90;;;;;;5050575;28;20441;-55
2023/03/22 00:24:10;;;;;;;1.30;0.90;;;9.40;99.90;;;;;;5051245;28;20477;-55
2023/03/22 00:26:37;;;;;;;5.03;1.40;;;9.10;99.90;;;;;;5051076;28;20570;-55
2023/03/22 00:29:03;;;;;;;1.30;1.10;;;8.90;99.90;;;;;;5051415;28;20483;-56
2023/03/22 00:31:30;;;;;;;1.40;0.90;;;9.00;99.90;;;;;;5051662;28;20884;-56
2023/03/22 00:33:59;;;;;;;1.60;1.00;;;9.10;99.90;;;;;;5052573;28;20509;-57
2023/03/22 00:36:26;;;;;;;3.70;2.10;;;9.10;99.90;;;;;;5052633;28;20526;-57
2023/03/22 00:38:53;;;;;;;1.50;1.20;;;9.10;99.90;;;;;;5052413;28;20506;-56
2023/03/22 00:41:21;;;;;;;2.00;1.33;;;9.10;99.90;;;;;;5052339;28;20471;-57
2023/03/22 00:43:49;;;;;;;2.07;1.30;;;8.60;99.90;;;;;;5052326;28;20472;-56
2023/03/22 00:46:18;;;;;;;2.17;1.57;;;8.50;99.90;;;;;;5052793;28;20529;-56
2023/03/22 00:48:45;;;;;;;1.83;1.50;;;8.50;99.90;;;;;;5052264;28;20551;-56
2023/03/22 00:51:14;;;;;;;1.93;1.57;;;8.60;99.90;;;;;;5052462;28;20481;-57
2023/03/22 00:53:41;;;;;;;3.30;1.70;;;8.70;99.90;;;;;;5050701;28;20560;-57
2023/03/22 00:56:09;;;;;;;3.27;1.53;;;8.80;99.90;;;;;;5050676;28;20537;-57
2023/03/22 00:58:36;;;;;;;1.20;1.10;;;8.90;99.90;;;;;;5050177;28;20530;-55
2023/03/22 01:01:03;;;;;;;1.33;1.00;;;8.90;99.90;;;;;;5050160;28;20563;-55
2023/03/22 01:03:30;;;;;;;3.00;1.40;;;8.80;99.90;;;;;;5050612;28;20495;-54
2023/03/22 01:05:57;;;;;;;4.00;1.30;;;8.70;99.90;;;;;;5050440;28;20532;-55
2023/03/22 01:08:32;;;;;;;1.73;1.13;;;8.50;99.90;;;;;;5051537;28;20501;-55
2023/03/22 01:10:59;;;;;;;1.10;0.80;;;8.60;99.90;;;;;;5052174;28;20445;-55
2023/03/22 01:13:26;;;;;;;1.97;1.30;;;8.50;99.90;;;;;;5051708;28;20568;-54
2023/03/22 01:15:53;;;;;;;2.27;0.90;;;8.50;99.90;;;;;;5051327;28;20450;-56
2023/03/22 01:18:20;;;;;;;2.20;0.83;;;8.30;99.90;;;;;;5051567;28;20901;-54
2023/03/22 01:20:47;;;;;;;1.83;1.00;;;8.40;99.90;;;;;;5051343;28;20482;-54
2023/03/22 01:23:13;;;;;;;1.70;1.40;;;8.20;99.90;;;;;;5051625;28;20504;-55
2023/03/22 01:25:42;;;;;;;1.50;1.20;;;8.20;99.90;;;;;;5051971;28;20480;-54
2023/03/22 01:28:09;;;;;;;1.80;1.00;;;8.10;99.90;;;;;;5051379;28;20493;-54
2023/03/22 01:30:36;;;;;;;1.93;1.27;;;8.20;99.90;;;;;;5051281;28;20892;-55
2023/03/22 01:33:04;;;;;;;2.90;2.50;;;8.10;99.90;;;;;;5049974;28;20603;-54
2023/03/22 01:35:31;;;;;;;1.57;1.00;;;8.30;99.90;;;;;;5051506;28;20456;-55
2023/03/22 01:37:58;;;;;;;2.03;1.13;;;8.30;99.90;;;;;;5051412;28;20554;-55
2023/03/22 01:40:27;;;;;;;1.50;1.03;;;8.40;99.90;;;;;;5051954;28;20495;-55
2023/03/22 01:42:56;;;;;;;1.43;1.23;;;8.30;99.90;;;;;;5051236;28;20878;-54
2023/03/22 01:45:37;;;;;;;1.50;1.03;;;8.20;99.90;;;;;;5050379;28;20476;-55
2023/03/22 01:48:26;;;;;;;3.07;1.23;;;8.10;99.90;;;;;;5049103;28;20549;-54
2023/03/22 01:51:01;;;;;;;2.27;1.07;;;8.00;99.90;;;;;;5049773;28;20857;-54
2023/03/22 01:53:30;;;;;;;2.60;1.83;;;8.20;99.90;;;;;;5049412;28;20477;-54
2023/03/22 01:55:58;;;;;;;1.63;1.53;;;8.20;99.90;;;;;;5049801;28;20931;-56
2023/03/22 01:58:27;;;;;;;1.93;1.33;;;8.10;99.90;;;;;;5049412;28;21003;-55
2023/03/22 02:00:54;;;;;;;3.50;0.90;;;8.40;99.90;;;;;;5050913;28;20544;-55
2023/03/22 02:03:30;;;;;;;4.87;1.70;;;8.50;99.90;;;;;;5050382;28;20504;-54
2023/03/22 02:05:58;;;;;;;6.13;3.57;;;8.40;99.90;;;;;;5029789;28;20634;-54
2023/03/22 02:08:24;;;;;;;3.47;1.20;;;8.30;99.90;;;;;;5044176;28;20492;-54
2023/03/22 02:10:52;;;;;;;1.80;1.20;;;8.30;99.90;;;;;;5049293;28;20489;-55
2023/03/22 02:13:46;;;;;;;3.33;1.10;;;8.30;99.90;;;;;;5049350;28;20509;-55
2023/03/22 02:16:24;;;;;;;1.20;1.00;;;8.30;99.90;;;;;;5050011;28;20511;-54
2023/03/22 02:19:10;;;;;;;1.90;1.23;;;7.90;99.90;;;;;;5049434;28;20469;-55
2023/03/22 02:22:13;;;;;;;1.40;1.20;;;7.50;99.90;;;;;;5050489;28;20883;-54
2023/03/22 02:25:07;;;;;;;1.43;1.07;;;7.40;99.90;;;;;;5037848;28;20445;-54
2023/03/22 02:27:52;;;;;;;1.90;1.40;;;7.60;99.90;;;;;;5036653;28;20500;-54
2023/03/22 02:30:55;;;;;;;1.57;1.47;;;7.70;99.90;;;;;;5049888;28;20861;-55
2023/03/22 02:33:45;;;;;;;1.90;1.10;;;7.80;99.90;;;;;;5016308;28;21053;-54
2023/03/22 02:36:37;;;;;;;2.27;1.30;;;7.90;99.90;;;;;;5050303;28;20832;-54
2023/03/22 02:39:21;;;;;;;1.30;1.10;;;8.00;99.90;;;;;;5050576;28;20541;-54
2023/03/22 02:41:58;;;;;;;3.80;1.60;;;8.00;99.90;;;;;;5050218;28;20479;-55
2023/03/22 02:44:35;;;;;;;2.10;1.20;;;8.00;99.90;;;;;;5052539;28;20465;-54
2023/03/22 02:47:06;;;;;;;2.03;0.90;;;8.10;99.90;;;;;;5052783;28;21150;-54
2023/03/22 02:49:37;;;;;;;1.83;0.87;;;8.10;99.90;;;;;;5033610;28;20493;-54
2023/03/22 02:52:16;;;;;;;9.60;5.60;;;8.20;99.90;;;;;;5034578;28;20525;-55
2023/03/22 02:54:50;;;;;;;2.03;1.13;;;8.30;99.90;;;;;;5053250;28;20465;-55
2023/03/22 02:57:25;;;;;;;1.47;1.20;;;8.40;99.90;;;;;;5053208;28;20497;-54
2023/03/22 02:59:54;;;;;;;1.10;0.90;;;8.50;99.90;;;;;;5053253;28;20475;-54
2023/03/22 03:02:23;;;;;;;1.80;1.30;;;8.20;99.90;;;;;;5054319;28;20452;-54
2023/03/22 03:04:52;;;;;;;1.47;0.90;;;8.20;99.90;;;;;;5054266;28;20473;-56
2023/03/22 03:07:24;;;;;;;1.43;1.20;;;8.10;99.90;;;;;;5054318;28;20515;-56
2023/03/22 03:09:53;;;;;;;2.03;1.30;;;7.60;99.90;;;;;;5054112;28;20473;-57
2023/03/22 03:12:23;;;;;;;1.90;1.30;;;7.50;99.90;;;;;;5054039;28;20960;-56
2023/03/22 03:14:50;;;;;;;2.63;1.20;;;7.80;99.90;;;;;;5054193;28;20457;-56
2023/03/22 03:17:26;;;;;;;2.30;1.30;;;8.10;99.90;;;;;;5053959;28;20479;-57
2023/03/22 03:20:06;;;;;;;1.30;1.20;;;8.10;99.90;;;;;;5053553;28;20977;-56
2023/03/22 03:22:44;;;;;;;2.23;1.03;;;8.10;99.90;;;;;;5053811;28;20454;-57
2023/03/22 03:25:18;;;;;;;1.40;1.13;;;8.10;99.90;;;;;;5034029;28;20485;-56
2023/03/22 03:27:50;;;;;;;1.10;0.80;;;7.90;99.90;;;;;;5047779;28;20503;-57
2023/03/22 03:30:25;;;;;;;2.03;1.00;;;7.70;99.90;;;;;;5053753;28;20473;-56
2023/03/22 03:32:55;;;;;;;1.97;1.10;;;7.70;99.90;;;;;;5052750;28;21054;-56
2023/03/22 03:35:24;;;;;;;1.17;1.07;;;7.90;99.90;;;;;;5052283;28;20484;-57
2023/03/22 03:37:56;;;;;;;1.43;0.90;;;8.10;99.90;;;;;;5052982;28;20557;-56
2023/03/22 03:40:29;;;;;;;1.63;0.77;;;8.20;99.90;;;;;;5053380;28;20453;-56
2023/03/22 03:43:00;;;;;;;1.57;1.20;;;8.30;99.90;;;;;;5053523;28;20446;-57
2023/03/22 03:45:27;;;;;;;1.10;0.90;;;8.20;99.90;;;;;;5053227;28;20878;-57
2023/03/22 03:47:58;;;;;;;1.43;0.83;;;8.10;99.90;;;;;;5053262;28;20545;-56
2023/03/22 03:50:27;;;;;;;3.23;0.87;;;8.00;99.90;;;;;;5053242;28;20449;-56
2023/03/22 03:52:54;;;;;;;3.53;1.40;;;7.90;99.90;;;;;;5053532;28;20640;-56
2023/03/22 03:55:24;;;;;;;2.23;1.13;;;7.90;99.90;;;;;;5052345;28;20539;-56
2023/03/22 03:57:50;;;;;;;1.57;0.90;;;8.00;99.90;;;;;;5052795;28;20501;-58
2023/03/22 04:00:18;;;;;;;1.60;1.10;;;7.70;99.90;;;;;;5053508;28;20529;-56
2023/03/22 04:02:45;;;;;;;1.40;1.00;;;7.70;99.90;;;;;;5052998;28;20473;-56
2023/03/22 04:05:13;;;;;;;1.97;1.00;;;7.70;99.90;;;;;;5053096;28;20520;-57
2023/03/22 04:07:40;;;;;;;1.10;0.73;;;8.00;99.90;;;;;;5052704;28;20987;-56
2023/03/22 04:10:08;;;;;;;1.13;0.80;;;8.10;99.90;;;;;;5052783;28;20536;-57
2023/03/22 04:12:37;;;;;;;1.50;0.90;;;8.20;99.90;;;;;;5051208;28;20437;-56
2023/03/22 04:15:05;;;;;;;1.30;1.00;;;7.90;99.90;;;;;;5051346;28;20524;-56
2023/03/22 04:17:31;;;;;;;1.63;1.00;;;7.20;99.90;;;;;;5050625;28;20516;-57
2023/03/22 04:19:58;;;;;;;1.50;1.10;;;6.90;99.90;;;;;;5051071;28;20473;-57
2023/03/22 04:22:26;;;;;;;1.30;0.90;;;7.30;99.90;;;;;;5051143;28;20469;-57
2023/03/22 04:24:53;;;;;;;4.17;1.20;;;7.50;99.90;;;;;;5051805;28;20529;-57
2023/03/22 04:27:21;;;;;;;2.27;0.97;;;7.50;99.90;;;;;;5052089;28;20500;-56
2023/03/22 04:29:49;;;;;;;1.83;1.17;;;7.60;99.90;;;;;;5051573;28;20449;-57
2023/03/22 04:32:17;;;;;;;1.90;1.27;;;7.30;99.90;;;;;;5052138;28;20442;-57
2023/03/22 04:34:45;;;;;;;1.20;0.93;;;7.30;99.90;;;;;;5052673;28;20487;-57
2023/03/22 04:37:12;;;;;;;1.67;0.90;;;7.30;99.90;;;;;;5051945;28;20851;-56
2023/03/22 04:39:39;;;;;;;2.00;1.00;;;7.20;99.90;;;;;;5051042;28;20474;-56
2023/03/22 04:42:06;;;;;;;3.57;1.70;;;7.30;99.90;;;;;;5051864;28;20778;-56
2023/03/22 04:44:33;;;;;;;3.47;2.40;;;7.50;99.90;;;;;;5051763;28;20445;-56
2023/03/22 04:47:01;;;;;;;1.77;1.37;;;7.60;99.90;;;;;;5049798;28;20553;-56
2023/03/22 04:49:30;;;;;;;2.07;1.63;;;7.30;99.90;;;;;;5049984;28;20959;-56
2023/03/22 04:51:57;;;;;;;3.13;2.00;;;7.20;99.90;;;;;;5050440;28;20840;-56
2023/03/22 04:54:24;;;;;;;2.40;1.50;;;7.00;99.90;;;;;;5050810;28;20561;-56
2023/03/22 04:56:51;;;;;;;1.80;1.23;;;7.30;99.90;;;;;;5075078;22;20512;-83
2023/03/22 04:59:19;;;;;;;2.17;1.23;;;7.40;99.90;;;;;;5035615;28;20462;-84
2023/03/22 05:01:46;;;;;;;2.20;0.83;;;7.50;99.90;;;;;;5037197;28;20585;-85
2023/03/22 05:04:15;;;;;;;1.40;1.20;;;7.60;99.90;;;;;;5035480;28;20944;-84
2023/03/22 05:06:43;;;;;;;1.50;1.17;;;7.60;99.90;;;;;;5032946;28;20883;-86
2023/03/22 05:09:10;;;;;;;3.10;1.40;;;7.50;99.90;;;;;;5034812;28;20851;-87
2023/03/22 05:11:39;;;;;;;3.40;1.57;;;7.20;99.90;;;;;;5036084;28;20547;-87
2023/03/22 05:14:06;;;;;;;2.47;1.40;;;7.30;99.90;;;;;;5038306;28;20497;-86
2023/03/22 05:16:33;;;;;;;2.50;1.37;;;7.10;99.90;;;;;;5039161;28;20447;-84
2023/03/22 05:19:01;;;;;;;1.80;1.10;;;7.30;99.90;;;;;;5039278;28;20512;-85
2023/03/22 05:21:35;;;;;;;1.77;1.10;;;7.20;99.90;;;;;;5038186;28;20869;-81
2023/03/22 05:24:03;;;;;;;2.33;1.50;;;6.90;99.90;;;;;;5041338;28;20438;-85
2023/03/22 05:26:30;;;;;;;4.73;1.40;;;6.90;99.90;;;;;;5042650;28;20504;-85
2023/03/22 05:28:57;;;;;;;2.20;1.17;;;6.80;99.90;;;;;;5041244;28;20458;-85
2023/03/22 05:31:27;;;;;;;1.87;1.20;;;7.00;99.90;;;;;;5040111;28;20443;-86
2023/03/22 05:33:54;;;;;;;2.00;1.33;;;7.20;99.90;;;;;;5041646;28;20486;-84
2023/03/22 05:36:22;;;;;;;11.40;6.00;;;7.00;99.90;;;;;;5044356;28;20449;-85
2023/03/22 05:38:51;;;;;;;2.97;2.30;;;6.50;99.90;;;;;;5045925;28;20470;-86
2023/03/22 05:41:19;;;;;;;3.83;1.87;;;6.40;99.90;;;;;;5043860;28;20439;-84
2023/03/22 05:43:46;;;;;;;2.37;1.80;;;6.60;99.90;;;;;;5027820;28;20481;-85
2023/03/22 05:46:13;;;;;;;2.30;1.60;;;6.90;99.90;;;;;;5042234;28;20442;-84
2023/03/22 05:48:40;;;;;;;1.70;1.50;;;7.10;99.90;;;;;;5040801;28;20467;-85
2023/03/22 05:51:08;;;;;;;1.93;1.23;;;7.20;99.90;;;;;;5041319;28;20533;-83
2023/03/22 05:53:35;;;;;;;1.90;1.43;;;7.10;99.90;;;;;;5037597;28;20528;-83
2023/03/22 05:56:08;;;;;;;2.40;1.70;;;7.20;99.90;;;;;;5036597;28;20481;-83
2023/03/22 05:58:35;;;;;;;2.80;1.33;;;7.00;99.90;;;;;;5037259;28;20458;-83
2023/03/22 06:01:06;;;;;;;1.60;1.17;;;7.00;99.90;;;;;;5037137;28;20450;-84
2023/03/22 06:03:33;;;;;;;4.43;1.20;;;6.80;99.90;;;;;;5041302;28;21068;-83
2023/03/22 06:06:00;;;;;;;4.10;2.70;;;6.80;99.90;;;;;;5041318;28;20455;-85
2023/03/22 06:08:27;;;;;;;12.63;9.17;;;6.80;99.90;;;;;;5040466;28;20505;-84
2023/03/22 06:10:54;;;;;;;49.00;43.57;;;6.70;99.90;;;;;;5041795;28;20471;-85
2023/03/22 06:13:23;;;;;;;5.03;3.40;;;6.90;99.90;;;;;;5040068;28;20458;-83
2023/03/22 06:15:50;;;;;;;2.53;1.80;;;7.10;99.90;;;;;;5039228;28;20496;-83
2023/03/22 06:18:17;;;;;;;1.40;1.00;;;7.20;99.90;;;;;;5038125;28;20457;-82
2023/03/22 06:20:45;;;;;;;3.00;2.17;;;7.30;99.90;;;;;;5037719;28;20466;-83
2023/03/22 06:23:12;;;;;;;5.00;2.80;;;7.30;99.90;;;;;;5035656;28;20473;-83
2023/03/22 06:25:39;;;;;;;3.90;3.10;;;7.30;99.90;;;;;;5029242;28;20863;-84
2023/03/22 06:28:07;;;;;;;3.20;2.90;;;7.20;99.90;;;;;;5018291;28;20494;-84
2023/03/22 06:30:36;;;;;;;4.03;2.33;;;7.00;99.90;;;;;;5043326;28;20458;-83
2023/03/22 06:33:04;;;;;;;4.73;2.30;;;6.70;99.90;;;;;;5039736;28;20435;-83
2023/03/22 06:35:32;;;;;;;5.03;3.80;;;6.40;99.90;;;;;;5039700;28;20481;-83
2023/03/22 06:37:59;;;;;;;5.00;3.93;;;6.60;99.90;;;;;;5039737;28;20453;-83
2023/03/22 06:40:26;;;;;;;4.43;3.30;;;6.60;99.90;;;;;;5043889;28;20496;-85
2023/03/22 06:42:54;;;;;;;1.80;1.33;;;6.50;99.90;;;;;;5046721;28;20447;-86
2023/03/22 06:45:22;;;;;;;5.10;3.23;;;6.50;99.90;;;;;;5045845;28;20447;-84
2023/03/22 06:47:50;;;;;;;2.93;1.73;;;6.50;99.90;;;;;;5045901;28;20443;-84
2023/03/22 06:50:17;;;;;;;3.00;1.97;;;6.50;99.90;;;;;;5044248;28;20999;-83
2023/03/22 06:52:44;;;;;;;3.20;1.87;;;6.50;99.90;;;;;;5046742;28;20903;-87
2023/03/22 06:55:11;;;;;;;2.27;1.50;;;6.50;99.90;;;;;;5046928;28;20844;-85
2023/03/22 06:57:38;;;;;;;1.90;1.30;;;6.30;99.90;;;;;;5047716;28;20488;-88
2023/03/22 07:00:07;;;;;;;1.97;1.30;;;6.40;99.90;;;;;;5046848;28;20473;-85
2023/03/22 07:02:35;;;;;;;4.83;4.07;;;6.60;99.90;;;;;;5045974;28;20434;-86
2023/03/22 07:05:04;;;;;;;5.93;5.43;;;6.90;99.90;;;;;;5044979;28;20446;-85
2023/03/22 07:07:31;;;;;;;2.53;1.90;;;7.30;99.90;;;;;;5042967;28;20508;-84
2023/03/22 07:09:58;;;;;;;2.13;1.90;;;7.30;99.90;;;;;;5041204;28;20473;-85
2023/03/22 07:12:25;;;;;;;1.67;1.20;;;7.10;99.90;;;;;;5038737;28;20443;-86
2023/03/22 07:14:52;;;;;;;2.57;1.83;;;6.90;99.90;;;;;;5040815;28;20482;-86
2023/03/22 07:17:19;;;;;;;3.07;2.87;;;6.60;99.90;;;;;;5043570;28;20940;-85
2023/03/22 07:19:46;;;;;;;2.47;2.23;;;6.50;99.90;;;;;;5044897;28;20454;-86
2023/03/22 07:22:14;;;;;;;2.70;2.13;;;6.70;99.90;;;;;;5041695;28;20435;-85
2023/03/22 07:24:41;;;;;;;6.43;3.50;;;6.80;99.90;;;;;;5065213;22;20863;-50
2023/03/22 07:27:08;;;;;;;6.13;4.87;;;6.80;99.90;;;;;;5051103;28;20457;-52
2023/03/22 07:29:35;;;;;;;6.30;3.43;;;6.90;99.90;;;;;;5051808;28;20899;-51
2023/03/22 07:32:02;;;;;;;4.07;3.40;;;7.00;99.90;;;;;;5056073;28;20525;-52
2023/03/22 07:34:29;;;;;;;8.00;4.37;;;7.00;99.90;;;;;;5055251;28;20509;-50
2023/03/22 07:36:56;;;;;;;4.27;3.87;;;7.00;99.90;;;;;;5054887;28;20477;-51
2023/03/22 07:39:26;;;;;;;4.80;3.50;;;6.90;99.90;;;;;;5056257;28;20437;-52
2023/03/22 07:41:52;;;;;;;6.90;3.07;;;6.90;99.90;;;;;;5055657;28;20878;-52
2023/03/22 07:44:19;;;;;;;3.80;2.90;;;6.90;99.90;;;;;;5055067;28;20546;-50
2023/03/22 07:46:46;;;;;;;3.57;2.80;;;6.90;99.90;;;;;;5055635;28;20465;-49
2023/03/22 07:49:14;;;;;;;2.30;1.90;;;7.10;99.90;;;;;;5055244;28;20480;-51
2023/03/22 07:51:41;;;;;;;1.83;1.70;;;7.20;99.90;;;;;;5055102;28;20963;-52
2023/03/22 07:54:08;;;;;;;4.63;3.10;;;7.30;99.90;;;;;;5054745;28;20512;-50
2023/03/22 07:56:36;;;;;;;3.33;1.77;;;7.50;99.90;;;;;;5054571;28;20524;-50
2023/03/22 07:59:04;;;;;;;3.07;1.40;;;7.60;99.90;;;;;;5053613;28;20488;-52
2023/03/22 08:01:31;;;;;;;1.90;1.27;;;7.70;99.90;;;;;;5053157;28;20485;-50
2023/03/22 08:03:57;;;;;;;2.30;1.50;;;7.90;99.90;;;;;;5052960;28;20924;-53
2023/03/22 08:06:24;;;;;;;2.50;1.63;;;7.90;99.90;;;;;;5053550;28;20474;-51
2023/03/22 08:08:51;;;;;;;3.30;2.10;;;8.00;99.90;;;;;;5053290;28;20466;-51
2023/03/22 08:11:18;;;;;;;4.20;2.07;;;8.10;99.90;;;;;;5053047;28;20532;-52
2023/03/22 08:13:46;;;;;;;7.10;4.70;;;8.60;99.90;;;;;;5052973;28;20982;-51
2023/03/22 08:16:13;;;;;;;6.73;3.20;;;8.50;99.90;;;;;;5052737;28;20548;-51
2023/03/22 08:18:40;;;;;;;5.53;2.60;;;8.60;99.90;;;;;;5053203;28;20601;-52
2023/03/22 08:21:07;;;;;;;5.37;2.73;;;8.60;99.90;;;;;;5052872;28;20445;-51
2023/03/22 08:23:34;;;;;;;4.93;3.20;;;8.70;99.90;;;;;;5052949;28;20485;-50
2023/03/22 08:26:01;;;;;;;4.43;2.67;;;8.80;99.90;;;;;;5053038;28;20519;-51
2023/03/22 08:28:28;;;;;;;4.27;2.90;;;8.80;99.90;;;;;;5053870;28;20552;-53
2023/03/22 08:30:56;;;;;;;6.53;4.05;;;8.90;99.90;;;;;;5052036;28;20544;-50
2023/03/22 08:33:24;;;;;;;3.70;3.10;;;9.00;99.90;;;;;;5053063;28;20294;-50
2023/03/22 08:35:51;;;;;;;7.97;3.80;;;9.00;99.90;;;;;;5052222;28;20511;-48
2023/03/22 08:38:18;;;;;;;4.10;3.33;;;9.20;99.90;;;;;;5052189;28;20559;-49
2023/03/22 08:40:46;;;;;;;2.10;1.50;;;9.30;99.90;;;;;;5052345;28;20997;-49
2023/03/22 08:43:13;;;;;;;1.90;1.50;;;9.40;99.90;;;;;;5052280;28;20946;-48
2023/03/22 08:45:40;;;;;;;2.63;1.80;;;9.40;99.90;;;;;;5052589;28;20950;-50
2023/03/22 08:48:08;;;;;;;2.23;1.30;;;9.50;99.90;;;;;;5052534;28;20662;-49
2023/03/22 08:50:35;;;;;;;1.60;1.33;;;9.50;99.90;;;;;;5052035;28;20951;-49
2023/03/22 08:53:02;;;;;;;3.40;1.10;;;9.60;99.90;;;;;;5052573;28;20444;-51
2023/03/22 08:55:30;;;;;;;1.80;1.57;;;9.70;99.90;;;;;;5052175;28;20918;-51
2023/03/22 08:57:57;;;;;;;1.63;1.20;;;9.70;99.90;;;;;;5052398;28;20475;-48
2023/03/22 09:00:25;;;;;;;2.17;1.40;;;9.80;99.90;;;;;;5052182;28;20446;-51
2023/03/22 09:02:52;;;;;;;3.03;1.57;;;9.80;99.90;;;;;;5052133;28;20450;-50
2023/03/22 09:05:20;;;;;;;2.73;1.60;;;9.90;99.90;;;;;;5052665;28;20466;-50
2023/03/22 09:07:51;;;;;;;1.50;1.30;;;10.10;99.90;;;;;;5051911;28;20517;-50
2023/03/22 09:10:18;;;;;;;3.10;1.67;;;10.20;99.90;;;;;;5052324;28;20520;-50
2023/03/22 09:12:45;;;;;;;1.80;1.43;;;10.20;99.90;;;;;;5051804;28;20963;-50
2023/03/22 09:15:12;;;;;;;3.13;1.43;;;10.30;99.90;;;;;;5052231;28;20500;-48
2023/03/22 09:17:39;;;;;;;2.13;1.40;;;10.40;99.90;;;;;;5052006;28;20507;-49
2023/03/22 09:20:07;;;;;;;3.30;1.90;;;10.40;99.90;;;;;;5051786;28;20456;-49
2023/03/22 09:22:36;;;;;;;3.70;1.40;;;10.50;99.90;;;;;;5051625;28;20521;-51
2023/03/22 09:25:03;;;;;;;1.90;1.47;;;10.70;99.90;;;;;;5051864;28;20957;-50
2023/03/22 09:27:30;;;;;;;2.87;1.47;;;10.80;99.90;;;;;;5051508;28;20929;-51
2023/03/22 09:29:57;;;;;;;3.70;1.57;;;10.80;99.90;;;;;;5051506;28;20698;-50
2023/03/22 09:32:24;;;;;;;2.20;1.40;;;10.90;99.90;;;;;;5051519;28;20479;-50
2023/03/22 09:34:50;;;;;;;1.73;1.43;;;11.00;99.90;;;;;;5051121;28;20566;-50
2023/03/22 09:37:19;;;;;;;2.07;1.40;;;11.10;99.90;;;;;;5051033;28;20508;-51
2023/03/22 09:39:48;;;;;;;2.20;1.60;;;11.30;99.90;;;;;;5051221;28;20957;-50
2023/03/22 09:42:28;;;;;;;1.70;1.20;;;11.30;99.90;;;;;;5051750;28;20454;-50
2023/03/22 09:44:56;;;;;;;2.00;1.10;;;11.40;99.90;;;;;;5051673;28;20522;-51
2023/03/22 09:47:31;;;;;;;11.83;1.87;;;11.50;99.90;;;;;;5051234;28;20555;-50
2023/03/22 09:50:06;;;;;;;2.07;1.37;;;11.50;99.90;;;;;;5051406;28;20536;-52
2023/03/22 09:52:33;;;;;;;1.50;1.10;;;11.70;99.90;;;;;;5051152;28;20440;-52
2023/03/22 09:55:01;;;;;;;2.17;1.30;;;11.80;99.90;;;;;;5050994;28;20508;-50
2023/03/22 09:57:33;;;;;;;5.43;2.50;;;11.90;99.90;;;;;;5051140;28;20500;-50
2023/03/22 10:00:15;;;;;;;3.80;2.07;;;12.60;99.90;;;;;;5051112;28;20872;-49
2023/03/22 10:02:52;;;;;;;2.20;1.50;;;13.10;99.90;;;;;;5051272;28;20451;-51
2023/03/22 10:05:27;;;;;;;1.40;1.00;;;12.90;99.90;;;;;;5051141;28;20923;-51
2023/03/22 10:08:09;;;;;;;3.00;1.17;;;13.20;99.90;;;;;;5051176;28;20544;-50
2023/03/22 10:10:40;;;;;;;1.60;1.20;;;12.90;99.90;;;;;;5051563;28;20532;-52
2023/03/22 10:13:16;;;;;;;2.40;1.60;;;12.70;99.90;;;;;;5051097;28;21169;-50
2023/03/22 10:15:46;;;;;;;2.40;1.60;;;12.60;99.90;;;;;;5050798;28;20496;-50
2023/03/22 10:18:18;;;;;;;2.60;1.47;;;12.60;99.90;;;;;;5050857;28;21046;-50
2023/03/22 10:20:52;;;;;;;2.00;1.40;;;12.70;99.90;;;;;;5050712;28;20441;-50
2023/03/22 10:23:24;;;;;;;2.00;1.20;;;12.80;99.90;;;;;;5050582;28;20539;-50
2023/03/22 10:25:55;;;;;;;2.10;1.20;;;12.90;99.90;;;;;;5051124;28;20433;-50
2023/03/22 10:28:26;;;;;;;4.00;1.50;;;13.00;99.90;;;;;;5050730;28;20493;-53
2023/03/22 10:30:55;;;;;;;1.50;1.10;;;13.00;99.90;;;;;;5051248;28;21009;-50
2023/03/22 10:33:31;;;;;;;2.10;1.43;;;13.10;99.90;;;;;;5050318;28;20441;-50
2023/03/22 10:35:59;;;;;;;2.40;1.30;;;13.10;99.90;;;;;;5050508;28;20571;-50
2023/03/22 10:38:28;;;;;;;1.80;1.30;;;13.30;99.90;;;;;;5049945;28;20873;-50
2023/03/22 10:40:59;;;;;;;3.50;1.30;;;13.30;99.90;;;;;;5050323;28;21031;-50
2023/03/22 10:43:32;;;;;;;5.10;1.60;;;13.30;99.90;;;;;;5050515;28;20529;-50
2023/03/22 10:46:00;;;;;;;2.50;1.63;;;13.20;99.90;;;;;;5050954;28;20450;-50
2023/03/22 10:48:31;;;;;;;1.93;1.20;;;13.50;99.90;;;;;;5050453;28;20524;-52
2023/03/22 10:50:59;;;;;;;2.03;1.40;;;13.50;99.90;;;;;;5050711;28;20464;-53
2023/03/22 10:53:32;;;;;;;1.97;1.50;;;13.50;99.90;;;;;;5049611;28;20529;-51
2023/03/22 10:56:00;;;;;;;2.37;1.73;;;13.50;99.90;;;;;;5050456;28;20572;-52
2023/03/22 10:58:30;;;;;;;2.10;1.70;;;13.40;99.90;;;;;;5050517;28;20497;-50
2023/03/22 11:00:59;;;;;;;2.10;1.77;;;13.40;99.90;;;;;;5050919;28;20495;-51
2023/03/22 11:03:30;;;;;;;3.63;2.70;;;13.60;99.90;;;;;;5050194;28;20453;-51
2023/03/22 11:06:03;;;;;;;2.17;1.27;;;13.80;99.90;;;;;;5053581;28;20441;-51
2023/03/22 11:08:38;;;;;;;2.87;0.80;;;13.80;99.90;;;;;;5054665;28;20975;-50
2023/03/22 11:11:07;;;;;;;1.30;1.00;;;13.90;99.90;;;;;;5054395;28;20449;-51
2023/03/22 11:13:35;;;;;;;1.37;0.97;;;13.90;99.90;;;;;;5054334;28;20524;-50
2023/03/22 11:16:04;;;;;;;2.00;0.87;;;14.00;99.90;;;;;;5054141;28;20563;-51
2023/03/22 11:18:32;;;;;;;1.27;0.90;;;14.60;99.90;;;;;;5053652;28;20469;-51
2023/03/22 11:21:04;;;;;;;1.20;0.70;;;14.70;99.90;;;;;;5053710;28;20640;-50
2023/03/22 11:23:33;;;;;;;2.43;1.20;;;14.70;99.90;;;;;;5054069;28;20556;-51
2023/03/22 11:26:08;;;;;;;3.03;1.70;;;14.90;99.90;;;;;;5053334;28;20865;-50
2023/03/22 11:28:37;;;;;;;1.10;0.50;;;14.70;99.90;;;;;;5042950;28;20563;-52
2023/03/22 11:31:07;;;;;;;2.37;1.00;;;14.80;99.90;;;;;;5041137;28;20521;-51
2023/03/22 11:33:34;;;;;;;1.27;0.77;;;14.70;99.90;;;;;;5043293;28;20442;-50
2023/03/22 11:36:04;;;;;;;1.23;0.80;;;14.80;99.90;;;;;;5042906;28;21087;-51
2023/03/22 11:38:36;;;;;;;2.27;0.90;;;14.80;99.90;;;;;;5044137;28;20533;-50
2023/03/22 11:41:08;;;;;;;2.50;0.80;;;14.70;99.90;;;;;;5043838;28;20462;-50
2023/03/22 11:43:39;;;;;;;1.30;0.80;;;15.30;99.90;;;;;;5043260;28;20474;-51
2023/03/22 11:46:08;;;;;;;2.20;0.90;;;14.90;99.90;;;;;;5042266;28;20923;-51
2023/03/22 11:48:36;;;;;;;1.17;0.73;;;15.10;99.90;;;;;;5043630;28;20462;-51
2023/03/22 11:51:09;;;;;;;2.30;1.03;;;15.40;99.90;;;;;;5033298;28;20542;-51
2023/03/22 11:53:40;;;;;;;2.33;1.13;;;15.10;99.90;;;;;;5033746;28;20504;-51
2023/03/22 11:56:11;;;;;;;1.20;0.90;;;15.40;99.90;;;;;;5053132;28;20505;-50
2023/03/22 11:58:54;;;;;;;1.97;1.03;;;15.40;99.90;;;;;;5053583;28;20548;-51
2023/03/22 12:01:38;;;;;;;1.50;1.00;;;15.40;99.90;;;;;;5053275;28;20947;-51
2023/03/22 12:04:09;;;;;;;7.90;5.30;;;15.20;99.90;;;;;;5053415;28;20484;-50
2023/03/22 12:06:39;;;;;;;1.53;0.80;;;15.60;99.90;;;;;;5053484;28;20531;-51
2023/03/22 12:09:12;;;;;;;1.47;0.90;;;15.60;99.90;;;;;;5053691;28;20521;-51
2023/03/22 12:11:41;;;;;;;1.50;0.90;;;15.60;99.90;;;;;;5052542;28;20532;-51
2023/03/22 12:14:19;;;;;;;1.10;0.70;;;15.40;99.90;;;;;;5052189;28;20940;-50
2023/03/22 12:16:49;;;;;;;4.50;0.70;;;15.40;99.90;;;;;;5051541;28;20509;-50
2023/03/22 12:19:28;;;;;;;1.40;0.70;;;15.30;99.90;;;;;;5053025;28;20996;-51
2023/03/22 12:21:55;;;;;;;1.93;0.70;;;15.20;99.90;;;;;;5053119;28;20540;-50
2023/03/22 12:24:26;;;;;;;2.10;0.90;;;15.40;99.90;;;;;;5053117;28;20461;-50
2023/03/22 12:26:58;;;;;;;1.83;1.30;;;15.40;99.90;;;;;;5052332;28;20435;-50
2023/03/22 12:29:28;;;;;;;1.80;1.30;;;15.30;99.90;;;;;;5052920;28;20532;-51
2023/03/22 12:32:02;;;;;;;1.50;0.90;;;16.00;99.90;;;;;;5052802;28;20445;-50
2023/03/22 12:34:36;;;;;;;1.40;0.93;;;16.20;99.90;;;;;;5052662;28;20487;-51
2023/03/22 12:37:07;;;;;;;1.57;0.87;;;16.50;99.90;;;;;;5052150;28;20480;-50
2023/03/22 12:39:38;;;;;;;1.57;1.13;;;16.30;99.90;;;;;;5052707;28;20952;-50
2023/03/22 12:42:16;;;;;;;2.03;1.03;;;16.40;99.90;;;;;;5052723;28;20529;-50
2023/03/22 12:44:47;;;;;;;2.37;1.40;;;16.50;99.90;;;;;;5053031;28;20524;-50
2023/03/22 12:47:20;;;;;;;2.33;1.17;;;16.10;99.90;;;;;;5052637;28;20547;-50
2023/03/22 12:49:54;;;;;;;1.80;1.03;;;15.90;99.90;;;;;;5052438;28;20485;-50
2023/03/22 12:52:25;;;;;;;1.80;1.03;;;16.20;99.90;;;;;;5052840;28;20540;-50
2023/03/22 12:54:53;;;;;;;1.50;1.20;;;16.60;99.90;;;;;;5052637;28;20542;-50
2023/03/22 12:57:20;;;;;;;1.77;1.30;;;16.50;99.90;;;;;;5052405;28;21081;-50
2023/03/22 12:59:52;;;;;;;1.40;1.20;;;16.40;99.90;;;;;;5052324;28;20495;-52
2023/03/22 13:02:26;;;;;;;3.83;1.00;;;16.70;99.90;;;;;;5052359;28;20482;-50
2023/03/22 13:04:55;;;;;;;1.47;1.20;;;16.60;99.90;;;;;;5052368;28;20537;-51
2023/03/22 13:07:37;;;;;;;3.20;1.10;;;16.30;99.90;;;;;;5051744;28;20461;-51